Time,TemperatureF,DewpointF,PressureIn,WindDirection,WindDirectionDegrees,WindSpeedMPH,WindSpeedGustMPH,Humidity,HourlyPrecipIn,Conditions,Clouds,dailyrainin,SoftwareType,DateUTC
2013-02-11 00:00:00,47.3,41.8,30.20,SSE,165,1.0,2.0,81,0.00,RA,OVC,0.00,WeatherDisplay:10.37,2013-02-11 05:00:00,
2013-02-11 00:10:00,47.0,41.8,30.20,South,169,2.0,3.0,82,0.00,-RA,OVC,0.00,WeatherDisplay:10.37,2013-02-11 05:10:00,
2013-02-11 00:15:00,46.9,42.0,30.20,South,174,1.0,3.0,83,0.00,-RA,OVC,0.00,WeatherDisplay:10.37,2013-02-11 05:15:00,
2013-02-11 00:25:00,46.6,42.0,30.20,South,175,0.0,2.0,84,0.00,-RA,OVC,0.00,WeatherDisplay:10.37,2013-02-11 05:25:00,
2013-02-11 00:30:00,46.5,42.2,30.19,South,175,0.0,2.0,85,0.00,-RA,OVC,0.00,WeatherDisplay:10.37,2013-02-11 05:30:00,
2013-02-11 00:35:00,46.4,42.1,30.19,South,177,0.0,5.0,85,0.00,-RA,OVC,0.00,WeatherDisplay:10.37,2013-02-11 05:35:00,
2013-02-11 00:40:00,46.3,42.0,30.19,South,178,1.0,2.0,85,0.00,-RA,OVC,0.00,WeatherDisplay:10.37,2013-02-11 05:40:00,
2013-02-11 00:45:00,46.3,42.3,30.19,South,178,1.0,3.0,86,0.00,-RA,OVC,0.00,WeatherDisplay:10.37,2013-02-11 05:45:00,
2013-02-11 00:50:00,46.2,42.2,30.19,South,178,0.0,2.0,86,0.00,-RA,OVC,0.00,WeatherDisplay:10.37,2013-02-11 05:50:00,
2013-02-11 00:55:00,46.2,42.2,30.19,South,178,0.0,0.0,86,0.00,-RA,OVC,0.00,WeatherDisplay:10.37,2013-02-11 05:55:00,
2013-02-11 01:00:00,46.1,42.1,30.19,South,178,0.0,0.0,86,0.00,SCT,OVC,0.00,WeatherDisplay:10.37,2013-02-11 06:00:00,
2013-02-11 01:10:00,46.1,42.4,30.18,South,178,0.0,2.0,87,0.00,OVC,OVC,0.00,WeatherDisplay:10.37,2013-02-11 06:10:00,
2013-02-11 01:15:00,46.1,42.4,30.17,South,178,1.0,3.0,87,0.00,OVC,OVC,0.00,WeatherDisplay:10.37,2013-02-11 06:15:00,
2013-02-11 01:25:00,46.2,43.1,30.17,South,178,0.0,2.0,89,0.00,OVC,OVC,0.00,WeatherDisplay:10.37,2013-02-11 06:25:00,
2013-02-11 01:30:00,46.2,43.1,30.17,South,178,0.0,3.0,89,0.00,OVC,OVC,0.00,WeatherDisplay:10.37,2013-02-11 06:30:00,
2013-02-11 01:40:00,46.3,43.5,30.16,South,178,0.0,2.0,90,0.00,OVC,OVC,0.00,WeatherDisplay:10.37,2013-02-11 06:40:00,
2013-02-11 01:45:00,46.3,43.5,30.16,South,178,0.0,2.0,90,0.00,OVC,OVC,0.00,WeatherDisplay:10.37,2013-02-11 06:45:00,
2013-02-11 01:55:00,46.4,43.9,30.14,South,178,0.0,3.0,91,0.00,OVC,OVC,0.00,WeatherDisplay:10.37,2013-02-11 06:55:00,
2013-02-11 02:00:00,46.4,43.9,30.14,South,178,0.0,3.0,91,0.00,SCT,OVC,0.00,WeatherDisplay:10.37,2013-02-11 07:00:00,
2013-02-11 02:10:00,46.6,44.1,30.14,South,178,0.0,2.0,91,0.00,OVC,OVC,0.00,WeatherDisplay:10.37,2013-02-11 07:10:00,
2013-02-11 02:15:00,46.7,44.2,30.14,South,178,0.0,0.0,91,0.00,OVC,OVC,0.00,WeatherDisplay:10.37,2013-02-11 07:15:00,
2013-02-11 02:25:00,46.8,44.6,30.15,South,178,0.0,2.0,92,0.00,OVC,OVC,0.00,WeatherDisplay:10.37,2013-02-11 07:25:00,
2013-02-11 02:30:00,47.0,44.8,30.15,South,169,0.0,3.0,92,0.00,OVC,OVC,0.00,WeatherDisplay:10.37,2013-02-11 07:30:00,
2013-02-11 02:40:00,47.2,45.0,30.14,ESE,117,0.0,2.0,92,0.00,OVC,OVC,0.00,WeatherDisplay:10.37,2013-02-11 07:40:00,
2013-02-11 02:45:00,47.3,45.4,30.14,ESE,117,0.0,2.0,93,0.00,OVC,OVC,0.00,WeatherDisplay:10.37,2013-02-11 07:45:00,
2013-02-11 02:55:00,47.6,45.7,30.13,ESE,117,0.0,0.0,93,0.00,OVC,OVC,0.01,WeatherDisplay:10.37,2013-02-11 07:55:00,
2013-02-11 03:00:00,47.6,45.7,30.12,ESE,117,0.0,0.0,93,0.00,SCT,OVC,0.01,WeatherDisplay:10.37,2013-02-11 08:00:00,
2013-02-11 03:10:00,47.9,46.0,30.13,ESE,117,0.0,0.0,93,0.00,OVC,OVC,0.01,WeatherDisplay:10.37,2013-02-11 08:10:00,
2013-02-11 03:15:00,47.9,46.0,30.13,ESE,117,0.0,0.0,93,0.00,OVC,OVC,0.01,WeatherDisplay:10.37,2013-02-11 08:15:00,
2013-02-11 03:25:00,48.1,46.1,30.12,ESE,117,0.0,0.0,93,0.00,OVC,OVC,0.01,WeatherDisplay:10.37,2013-02-11 08:25:00,
2013-02-11 03:30:00,48.1,46.2,30.12,ESE,117,0.0,0.0,93,0.00,OVC,OVC,0.01,WeatherDisplay:10.37,2013-02-11 08:30:00,
2013-02-11 03:40:00,48.2,46.3,30.11,ESE,117,0.0,0.0,93,0.00,OVC,OVC,0.01,WeatherDisplay:10.37,2013-02-11 08:40:00,
2013-02-11 03:45:00,48.2,46.6,30.11,ESE,117,0.0,0.0,94,0.00,OVC,OVC,0.01,WeatherDisplay:10.37,2013-02-11 08:45:00,
2013-02-11 03:55:00,48.3,46.7,30.10,ESE,117,0.0,0.0,94,0.00,OVC,OVC,0.01,WeatherDisplay:10.37,2013-02-11 08:55:00,
2013-02-11 04:00:00,48.4,46.8,30.10,ESE,117,0.0,0.0,94,0.00,OVC,OVC,0.01,WeatherDisplay:10.37,2013-02-11 09:00:00,
2013-02-11 04:10:00,48.4,46.8,30.10,ESE,117,0.0,0.0,94,0.00,OVC,OVC,0.01,WeatherDisplay:10.37,2013-02-11 09:10:00,
2013-02-11 04:15:00,48.4,46.8,30.09,ESE,117,0.0,0.0,94,0.00,OVC,OVC,0.01,WeatherDisplay:10.37,2013-02-11 09:15:00,
2013-02-11 04:25:00,48.5,46.9,30.10,ESE,117,0.0,0.0,94,0.00,OVC,OVC,0.01,WeatherDisplay:10.37,2013-02-11 09:25:00,
2013-02-11 04:30:00,48.5,46.9,30.10,ESE,117,0.0,0.0,94,0.00,OVC,OVC,0.01,WeatherDisplay:10.37,2013-02-11 09:30:00,
2013-02-11 04:40:00,48.6,47.0,30.10,ESE,117,0.0,0.0,94,0.00,OVC,OVC,0.01,WeatherDisplay:10.37,2013-02-11 09:40:00,
2013-02-11 04:45:00,48.6,47.0,30.10,ESE,117,0.0,2.0,94,0.00,OVC,OVC,0.01,WeatherDisplay:10.37,2013-02-11 09:45:00,
2013-02-11 04:55:00,48.7,47.1,30.09,ESE,118,0.0,0.0,94,0.00,OVC,OVC,0.01,WeatherDisplay:10.37,2013-02-11 09:55:00,
2013-02-11 05:00:00,48.7,47.1,30.09,ESE,118,0.0,0.0,94,0.00,OVC,OVC,0.01,WeatherDisplay:10.37,2013-02-11 10:00:00,
2013-02-11 05:10:00,48.8,47.2,30.09,ESE,118,0.0,0.0,94,0.00,OVC,OVC,0.01,WeatherDisplay:10.37,2013-02-11 10:10:00,
2013-02-11 05:15:00,48.9,47.2,30.09,ESE,118,0.0,0.0,94,0.00,OVC,OVC,0.01,WeatherDisplay:10.37,2013-02-11 10:15:00,
2013-02-11 05:25:00,49.0,47.3,30.09,ESE,118,0.0,0.0,94,0.00,OVC,OVC,0.01,WeatherDisplay:10.37,2013-02-11 10:25:00,
2013-02-11 05:30:00,49.1,47.4,30.09,ESE,118,0.0,0.0,94,0.00,OVC,OVC,0.01,WeatherDisplay:10.37,2013-02-11 10:30:00,
2013-02-11 05:40:00,49.2,47.5,30.09,ESE,118,0.0,0.0,94,0.00,OVC,OVC,0.01,WeatherDisplay:10.37,2013-02-11 10:40:00,
2013-02-11 05:45:00,49.4,48.0,30.08,ESE,118,0.0,0.0,95,0.00,OVC,OVC,0.01,WeatherDisplay:10.37,2013-02-11 10:45:00,
2013-02-11 05:55:00,49.5,48.2,30.09,ESE,118,0.0,0.0,95,0.00,OVC,OVC,0.01,WeatherDisplay:10.37,2013-02-11 10:55:00,
2013-02-11 06:00:00,49.7,48.3,30.09,ESE,118,0.0,0.0,95,0.00,OVC,OVC,0.01,WeatherDisplay:10.37,2013-02-11 11:00:00,
2013-02-11 06:10:00,49.9,48.5,30.09,ESE,118,0.0,0.0,95,0.00,OVC,OVC,0.01,WeatherDisplay:10.37,2013-02-11 11:10:00,
2013-02-11 06:15:00,50.1,48.7,30.10,ESE,118,0.0,0.0,95,0.00,OVC,OVC,0.01,WeatherDisplay:10.37,2013-02-11 11:15:00,
2013-02-11 06:25:00,50.4,49.3,30.09,ESE,118,0.0,0.0,96,0.00,OVC,OVC,0.01,WeatherDisplay:10.37,2013-02-11 11:25:00,
2013-02-11 06:30:00,50.6,49.5,30.09,ESE,118,0.0,2.0,96,0.00,OVC,OVC,0.01,WeatherDisplay:10.37,2013-02-11 11:30:00,
2013-02-11 06:40:00,50.9,49.8,30.09,ESE,117,0.0,0.0,96,0.00,-RA,OVC,0.01,WeatherDisplay:10.37,2013-02-11 11:40:00,
2013-02-11 06:45:00,51.1,50.0,30.09,ESE,118,0.0,0.0,96,0.00,-RA,OVC,0.01,WeatherDisplay:10.37,2013-02-11 11:45:00,
2013-02-11 06:55:00,51.4,50.3,30.10,ESE,118,0.0,0.0,96,0.00,-RA,OVC,0.01,WeatherDisplay:10.37,2013-02-11 11:55:00,
2013-02-11 07:00:00,51.6,50.5,30.09,ESE,118,0.0,2.0,96,0.00,OVC,OVC,0.01,WeatherDisplay:10.37,2013-02-11 12:00:00,
2013-02-11 07:10:00,51.8,51.0,30.09,ESE,111,0.0,3.0,97,0.01,-RA,OVC,0.02,WeatherDisplay:10.37,2013-02-11 12:10:00,
2013-02-11 07:15:00,52.0,51.2,30.09,North,11,0.0,3.0,97,0.00,-RA,OVC,0.02,WeatherDisplay:10.37,2013-02-11 12:15:00,
2013-02-11 07:25:00,52.2,51.1,30.09,NE,49,1.0,3.0,96,0.00,-RA,OVC,0.02,WeatherDisplay:10.37,2013-02-11 12:25:00,
2013-02-11 07:30:00,52.4,51.5,30.09,NE,36,0.0,1.0,97,0.01,-RA,OVC,0.03,WeatherDisplay:10.37,2013-02-11 12:30:00,
2013-02-11 07:40:00,52.7,51.9,30.09,North,5,0.0,2.0,97,0.00,-RA,OVC,0.03,WeatherDisplay:10.37,2013-02-11 12:40:00,
2013-02-11 07:45:00,52.9,52.1,30.09,WNW,292,3.0,5.0,97,0.00,-RA,OVC,0.03,WeatherDisplay:10.37,2013-02-11 12:45:00,
2013-02-11 07:55:00,53.4,52.6,30.08,SE,138,0.0,3.0,97,0.00,-RA,OVC,0.04,WeatherDisplay:10.37,2013-02-11 12:55:00,
2013-02-11 08:05:00,53.8,53.0,30.09,ESE,102,0.0,3.0,97,0.00,-RA,OVC,0.04,WeatherDisplay:10.37,2013-02-11 13:05:00,
2013-02-11 08:10:00,54.1,53.2,30.09,ENE,73,0.0,5.0,97,0.01,-RA,OVC,0.05,WeatherDisplay:10.37,2013-02-11 13:10:00,
2013-02-11 08:15:00,54.3,53.5,30.09,ENE,57,1.0,3.0,97,0.01,-RA,OVC,0.06,WeatherDisplay:10.37,2013-02-11 13:15:00,
2013-02-11 08:20:00,54.5,53.6,30.09,ENE,76,1.0,3.0,97,0.01,-RA,OVC,0.07,WeatherDisplay:10.37,2013-02-11 13:20:00,
2013-02-11 08:30:00,54.9,54.0,30.09,NE,50,2.0,3.0,97,0.01,-RA,OVC,0.09,WeatherDisplay:10.37,2013-02-11 13:30:00,
2013-02-11 08:40:00,55.1,54.3,30.08,ENE,65,1.0,3.0,97,0.01,-RA,OVC,0.10,WeatherDisplay:10.37,2013-02-11 13:40:00,
2013-02-11 08:45:00,55.2,54.4,30.08,SSE,147,0.0,3.0,97,0.00,-RA,OVC,0.10,WeatherDisplay:10.37,2013-02-11 13:45:00,
2013-02-11 08:55:00,55.4,54.6,30.07,SSE,158,0.0,5.0,97,0.01,-RA,OVC,0.11,WeatherDisplay:10.37,2013-02-11 13:55:00,
2013-02-11 09:00:00,55.5,54.7,30.06,SE,134,0.0,6.0,97,0.00,OVC,OVC,0.11,WeatherDisplay:10.37,2013-02-11 14:00:00,
2013-02-11 09:10:00,55.7,54.9,30.06,SSE,153,6.0,8.0,97,0.01,RA,OVC,0.12,WeatherDisplay:10.37,2013-02-11 14:10:00,
2013-02-11 09:15:00,55.9,55.3,30.06,SSW,213,0.0,3.0,98,0.00,OVC,OVC,0.12,WeatherDisplay:10.37,2013-02-11 14:15:00,
2013-02-11 09:20:00,56.0,55.5,30.05,SSW,201,5.0,8.0,98,0.00,OVC,OVC,0.12,WeatherDisplay:10.37,2013-02-11 14:20:00,
2013-02-11 09:30:00,56.3,55.8,30.05,ENE,73,2.0,5.0,98,0.00,OVC,OVC,0.12,WeatherDisplay:10.37,2013-02-11 14:30:00,
2013-02-11 09:40:00,56.7,56.2,30.04,NE,45,7.0,7.0,98,0.00,OVC,OVC,0.12,WeatherDisplay:10.37,2013-02-11 14:40:00,
2013-02-11 09:45:00,57.0,56.4,30.03,SSE,163,7.0,8.0,98,0.00,OVC,OVC,0.12,WeatherDisplay:10.37,2013-02-11 14:45:00,
2013-02-11 09:55:00,57.4,56.9,30.03,South,174,6.0,9.0,98,0.00,OVC,OVC,0.12,WeatherDisplay:10.37,2013-02-11 14:55:00,
2013-02-11 10:00:00,57.6,57.0,30.04,NW,319,5.0,8.0,98,0.00,OVC,OVC,0.12,WeatherDisplay:10.37,2013-02-11 15:00:00,
2013-02-11 10:10:00,57.8,57.2,30.04,NNE,23,0.0,11.0,98,0.00,OVC,OVC,0.12,WeatherDisplay:10.37,2013-02-11 15:10:00,
2013-02-11 10:15:00,57.8,57.2,30.05,NW,312,5.0,6.0,98,0.00,OVC,OVC,0.12,WeatherDisplay:10.37,2013-02-11 15:15:00,
2013-02-11 10:25:00,57.9,57.4,30.05,NW,321,5.0,6.0,98,0.00,OVC,OVC,0.12,WeatherDisplay:10.37,2013-02-11 15:25:00,
2013-02-11 10:30:00,58.0,57.4,30.05,West,273,6.0,8.0,98,0.00,OVC,OVC,0.12,WeatherDisplay:10.37,2013-02-11 15:30:00,
2013-02-11 10:40:00,58.2,57.6,30.05,NNW,329,3.0,11.0,98,0.00,OVC,OVC,0.12,WeatherDisplay:10.37,2013-02-11 15:40:00,
2013-02-11 10:45:00,58.3,57.7,30.05,WNW,288,3.0,9.0,98,0.00,OVC,OVC,0.12,WeatherDisplay:10.37,2013-02-11 15:45:00,
2013-02-11 10:50:00,58.4,57.8,30.05,West,264,8.0,11.0,98,0.00,-DZ,OVC,0.12,WeatherDisplay:10.37,2013-02-11 15:50:00,
2013-02-11 11:00:00,58.5,57.9,30.04,NW,309,3.0,6.0,98,0.00,OVC,OVC,0.12,WeatherDisplay:10.37,2013-02-11 16:00:00,
2013-02-11 11:10:00,58.7,58.1,30.03,WNW,302,3.0,6.0,98,0.00,-RA,OVC,0.12,WeatherDisplay:10.37,2013-02-11 16:10:00,
2013-02-11 11:15:00,58.7,58.1,30.03,SE,128,3.0,6.0,98,0.00,-RA,OVC,0.12,WeatherDisplay:10.37,2013-02-11 16:15:00,
2013-02-11 11:25:00,58.9,58.3,30.03,NW,312,6.0,6.0,98,0.00,-RA,OVC,0.12,WeatherDisplay:10.37,2013-02-11 16:25:00,
2013-02-11 11:30:00,58.9,58.3,30.03,WNW,284,3.0,11.0,98,0.00,-RA,OVC,0.12,WeatherDisplay:10.37,2013-02-11 16:30:00,
2013-02-11 11:40:00,59.0,58.4,30.02,NNW,327,3.0,11.0,98,0.00,OVC,OVC,0.12,WeatherDisplay:10.37,2013-02-11 16:40:00,
2013-02-11 11:45:00,59.1,58.5,30.02,WNW,301,7.0,9.0,98,0.00,OVC,OVC,0.12,WeatherDisplay:10.37,2013-02-11 16:45:00,
2013-02-11 11:55:00,59.2,58.6,30.01,NW,322,2.0,6.0,98,0.00,OVC,OVC,0.12,WeatherDisplay:10.37,2013-02-11 16:55:00,
2013-02-11 12:00:00,59.2,58.6,30.00,NE,40,2.0,3.0,98,0.00,OVC,OVC,0.12,WeatherDisplay:10.37,2013-02-11 17:00:00,
2013-02-11 12:05:00,59.2,58.7,30.00,NE,52,1.0,3.0,98,0.00,OVC,OVC,0.12,WeatherDisplay:10.37,2013-02-11 17:05:00,
2013-02-11 12:15:00,59.3,58.7,30.00,North,7,2.0,6.0,98,0.00,OVC,OVC,0.12,WeatherDisplay:10.37,2013-02-11 17:15:00,
2013-02-11 12:25:00,59.4,58.8,30.00,NW,324,1.0,5.0,98,0.00,OVC,OVC,0.12,WeatherDisplay:10.37,2013-02-11 17:25:00,
2013-02-11 12:30:00,59.5,58.9,30.00,NW,308,1.0,3.0,98,0.00,OVC,OVC,0.12,WeatherDisplay:10.37,2013-02-11 17:30:00,
2013-02-11 12:40:00,59.5,59.0,30.00,WNW,301,0.0,2.0,98,0.00,OVC,OVC,0.12,WeatherDisplay:10.37,2013-02-11 17:40:00,
2013-02-11 12:45:00,59.6,59.0,29.99,West,280,2.0,3.0,98,0.00,OVC,OVC,0.12,WeatherDisplay:10.37,2013-02-11 17:45:00,
2013-02-11 12:55:00,59.7,59.1,29.99,NW,326,0.0,6.0,98,0.00,-DZ,OVC,0.12,WeatherDisplay:10.37,2013-02-11 17:55:00,
2013-02-11 13:00:00,59.8,59.2,29.98,NE,41,1.0,5.0,98,0.00,OVC,OVC,0.12,WeatherDisplay:10.37,2013-02-11 18:00:00,
2013-02-11 13:10:00,59.9,59.3,29.99,WNW,292,1.0,5.0,98,0.00,OVC,OVC,0.12,WeatherDisplay:10.37,2013-02-11 18:10:00,
2013-02-11 13:15:00,60.0,59.4,29.99,West,279,0.0,3.0,98,0.00,OVC,OVC,0.12,WeatherDisplay:10.37,2013-02-11 18:15:00,
2013-02-11 13:25:00,60.0,59.4,29.99,NW,312,3.0,5.0,98,0.00,OVC,OVC,0.12,WeatherDisplay:10.37,2013-02-11 18:25:00,
2013-02-11 13:30:00,60.1,59.5,29.98,NW,324,2.0,6.0,98,0.00,OVC,OVC,0.12,WeatherDisplay:10.37,2013-02-11 18:30:00,
2013-02-11 13:35:00,60.2,59.6,29.98,NNW,329,0.0,5.0,98,0.00,OVC,OVC,0.12,WeatherDisplay:10.37,2013-02-11 18:35:00,
2013-02-11 13:45:00,60.3,59.7,29.98,NW,316,2.0,8.0,98,0.00,OVC,OVC,0.12,WeatherDisplay:10.37,2013-02-11 18:45:00,
2013-02-11 13:55:00,60.4,59.8,29.97,WNW,290,5.0,6.0,98,0.00,OVC,OVC,0.12,WeatherDisplay:10.37,2013-02-11 18:55:00,
2013-02-11 14:00:00,60.5,59.9,29.96,WNW,303,1.0,5.0,98,0.00,OVC,OVC,0.12,WeatherDisplay:10.37,2013-02-11 19:00:00,
2013-02-11 14:10:00,60.6,60.0,29.95,NNE,25,3.0,5.0,98,0.00,OVC,OVC,0.12,WeatherDisplay:10.37,2013-02-11 19:10:00,
2013-02-11 14:15:00,60.7,60.1,29.96,ESE,103,1.0,5.0,98,0.00,OVC,OVC,0.12,WeatherDisplay:10.37,2013-02-11 19:15:00,
2013-02-11 14:25:00,60.8,60.3,29.95,WNW,301,0.0,2.0,98,0.00,-DZ,OVC,0.12,WeatherDisplay:10.37,2013-02-11 19:25:00,
2013-02-11 14:30:00,60.9,60.3,29.95,West,274,1.0,8.0,98,0.00,-DZ,OVC,0.12,WeatherDisplay:10.37,2013-02-11 19:30:00,
2013-02-11 14:40:00,60.9,60.3,29.96,WNW,302,1.0,6.0,98,0.00,-DZ,OVC,0.12,WeatherDisplay:10.37,2013-02-11 19:40:00,
2013-02-11 14:45:00,60.9,60.3,29.96,WNW,295,5.0,6.0,98,0.00,-DZ,OVC,0.12,WeatherDisplay:10.37,2013-02-11 19:45:00,
2013-02-11 14:55:00,60.9,60.3,29.96,NNW,342,2.0,3.0,98,0.00,-DZ,OVC,0.12,WeatherDisplay:10.37,2013-02-11 19:55:00,
2013-02-11 15:00:00,60.9,60.3,29.95,NW,310,2.0,6.0,98,0.00,OVC,OVC,0.12,WeatherDisplay:10.37,2013-02-11 20:00:00,
2013-02-11 15:10:00,60.9,60.3,29.95,WNW,287,1.0,5.0,98,0.00,-DZ,OVC,0.12,WeatherDisplay:10.37,2013-02-11 20:10:00,
2013-02-11 15:15:00,60.9,60.3,29.96,WNW,297,2.0,11.0,98,0.00,-DZ,OVC,0.12,WeatherDisplay:10.37,2013-02-11 20:15:00,
2013-02-11 15:25:00,61.0,60.4,29.94,WNW,294,5.0,6.0,98,0.00,-DZ,OVC,0.12,WeatherDisplay:10.37,2013-02-11 20:25:00,
2013-02-11 15:30:00,60.9,60.4,29.94,NW,326,0.0,5.0,98,0.00,-DZ,OVC,0.12,WeatherDisplay:10.37,2013-02-11 20:30:00,
2013-02-11 15:40:00,61.0,60.4,29.94,North,11,1.0,6.0,98,0.00,-DZ,OVC,0.12,WeatherDisplay:10.37,2013-02-11 20:40:00,
2013-02-11 15:45:00,61.0,60.4,29.94,NW,325,2.0,8.0,98,0.00,-DZ,OVC,0.12,WeatherDisplay:10.37,2013-02-11 20:45:00,
2013-02-11 15:55:00,61.1,60.5,29.94,WSW,257,3.0,6.0,98,0.00,OVC,OVC,0.12,WeatherDisplay:10.37,2013-02-11 20:55:00,
2013-02-11 16:00:00,61.1,60.5,29.94,WNW,292,1.0,5.0,98,0.00,OVC,OVC,0.12,WeatherDisplay:10.37,2013-02-11 21:00:00,
2013-02-11 16:10:00,61.1,60.5,29.93,ENE,61,3.0,6.0,98,0.00,OVC,OVC,0.12,WeatherDisplay:10.37,2013-02-11 21:10:00,
2013-02-11 16:15:00,61.2,60.6,29.93,NNW,331,0.0,5.0,98,0.00,OVC,OVC,0.12,WeatherDisplay:10.37,2013-02-11 21:15:00,
2013-02-11 16:20:00,61.2,60.6,29.93,WNW,292,5.0,5.0,98,0.00,OVC,OVC,0.12,WeatherDisplay:10.37,2013-02-11 21:20:00,
2013-02-11 16:30:00,61.2,60.3,29.93,West,269,3.0,6.0,97,0.00,OVC,OVC,0.12,WeatherDisplay:10.37,2013-02-11 21:30:00,
2013-02-11 16:40:00,61.2,60.3,29.91,SW,230,1.0,5.0,97,0.00,OVC,OVC,0.12,WeatherDisplay:10.37,2013-02-11 21:40:00,
2013-02-11 16:45:00,61.2,60.3,29.91,NW,306,2.0,5.0,97,0.00,OVC,OVC,0.12,WeatherDisplay:10.37,2013-02-11 21:45:00,
2013-02-11 16:55:00,61.3,60.4,29.91,NNW,330,1.0,5.0,97,0.00,OVC,OVC,0.12,WeatherDisplay:10.37,2013-02-11 21:55:00,
2013-02-11 17:00:00,61.3,60.4,29.91,NNW,332,0.0,6.0,97,0.00,OVC,OVC,0.12,WeatherDisplay:10.37,2013-02-11 22:00:00,
2013-02-11 17:10:00,61.3,60.4,29.91,WNW,293,5.0,6.0,97,0.00,OVC,OVC,0.12,WeatherDisplay:10.37,2013-02-11 22:10:00,
2013-02-11 17:15:00,61.3,60.4,29.91,West,281,5.0,5.0,97,0.00,OVC,OVC,0.12,WeatherDisplay:10.37,2013-02-11 22:15:00,
2013-02-11 17:25:00,61.3,60.2,29.92,NNW,336,1.0,3.0,96,0.00,OVC,OVC,0.12,WeatherDisplay:10.37,2013-02-11 22:25:00,
2013-02-11 17:30:00,61.3,60.2,29.92,NW,320,3.0,5.0,96,0.00,OVC,OVC,0.12,WeatherDisplay:10.37,2013-02-11 22:30:00,
2013-02-11 17:40:00,61.3,60.2,29.93,WNW,296,2.0,6.0,96,0.00,OVC,OVC,0.12,WeatherDisplay:10.37,2013-02-11 22:40:00,
2013-02-11 17:45:00,61.3,60.2,29.93,WNW,301,1.0,2.0,96,0.00,OVC,OVC,0.12,WeatherDisplay:10.37,2013-02-11 22:45:00,
2013-02-11 17:55:00,61.4,59.9,29.93,WNW,291,5.0,5.0,95,0.00,OVC,OVC,0.12,WeatherDisplay:10.37,2013-02-11 22:55:00,
2013-02-11 18:00:00,61.4,60.0,29.93,WNW,301,5.0,8.0,95,0.00,OVC,OVC,0.12,WeatherDisplay:10.37,2013-02-11 23:00:00,
2013-02-11 18:10:00,61.4,60.0,29.93,NW,305,7.0,7.0,95,0.00,OVC,OVC,0.12,WeatherDisplay:10.37,2013-02-11 23:10:00,
2013-02-11 18:15:00,61.4,60.0,29.93,NW,307,5.0,8.0,95,0.00,OVC,OVC,0.12,WeatherDisplay:10.37,2013-02-11 23:15:00,
2013-02-11 18:25:00,61.5,60.1,29.92,WNW,298,3.0,5.0,95,0.00,OVC,OVC,0.12,WeatherDisplay:10.37,2013-02-11 23:25:00,
2013-02-11 18:30:00,61.5,59.7,29.93,NW,314,8.0,8.0,94,0.00,OVC,OVC,0.12,WeatherDisplay:10.37,2013-02-11 23:30:00,
2013-02-11 18:40:00,61.5,59.5,29.93,NW,318,7.0,9.0,93,0.00,OVC,OVC,0.12,WeatherDisplay:10.37,2013-02-11 23:40:00,
2013-02-11 18:45:00,61.6,59.6,29.93,NW,323,6.0,6.0,93,0.00,OVC,OVC,0.12,WeatherDisplay:10.37,2013-02-11 23:45:00,
2013-02-11 18:55:00,61.7,59.4,29.94,NW,306,8.0,8.0,92,0.00,OVC,OVC,0.12,WeatherDisplay:10.37,2013-02-11 23:55:00,
2013-02-11 19:00:00,61.7,59.4,29.94,WNW,301,16.0,16.0,92,0.00,OVC,OVC,0.12,WeatherDisplay:10.37,2013-02-12 00:00:00,
2013-02-11 19:10:00,61.8,59.1,29.94,NW,310,8.0,9.0,91,0.00,OVC,OVC,0.12,WeatherDisplay:10.37,2013-02-12 00:10:00,
2013-02-11 19:15:00,61.9,59.2,29.93,WNW,297,7.0,8.0,91,0.00,OVC,OVC,0.12,WeatherDisplay:10.37,2013-02-12 00:15:00,
2013-02-11 19:25:00,62.0,59.0,29.93,WNW,301,8.0,8.0,90,0.00,OVC,OVC,0.12,WeatherDisplay:10.37,2013-02-12 00:25:00,
2013-02-11 19:30:00,62.0,59.0,29.93,WNW,299,2.0,6.0,90,0.00,OVC,OVC,0.12,WeatherDisplay:10.37,2013-02-12 00:30:00,
2013-02-11 19:35:00,62.0,59.0,29.93,WNW,302,3.0,6.0,90,0.00,OVC,OVC,0.12,WeatherDisplay:10.37,2013-02-12 00:35:00,
2013-02-11 19:45:00,62.0,59.0,29.92,NW,314,5.0,5.0,90,0.00,OVC,OVC,0.12,WeatherDisplay:10.37,2013-02-12 00:45:00,
2013-02-11 19:55:00,62.0,59.0,29.93,NW,321,2.0,6.0,90,0.00,OVC,OVC,0.12,WeatherDisplay:10.37,2013-02-12 00:55:00,
2013-02-11 20:00:00,62.0,59.0,29.93,NW,310,9.0,9.0,90,0.00,CLR,OVC,0.12,WeatherDisplay:10.37,2013-02-12 01:00:00,
2013-02-11 20:10:00,62.0,59.0,29.94,WNW,299,8.0,8.0,90,0.00,OVC,OVC,0.12,WeatherDisplay:10.37,2013-02-12 01:10:00,
2013-02-11 20:15:00,61.9,58.9,29.93,WNW,285,5.0,5.0,90,0.00,OVC,OVC,0.12,WeatherDisplay:10.37,2013-02-12 01:15:00,
2013-02-11 20:25:00,61.9,58.9,29.94,WNW,282,1.0,5.0,90,0.00,OVC,OVC,0.12,WeatherDisplay:10.37,2013-02-12 01:25:00,
2013-02-11 20:30:00,61.8,58.9,29.94,NW,310,7.0,7.0,90,0.00,OVC,OVC,0.12,WeatherDisplay:10.37,2013-02-12 01:30:00,
2013-02-11 20:40:00,61.8,58.8,29.94,NW,310,1.0,3.0,90,0.00,OVC,OVC,0.12,WeatherDisplay:10.37,2013-02-12 01:40:00,
2013-02-11 20:45:00,61.8,58.8,29.94,NW,311,5.0,5.0,90,0.00,OVC,OVC,0.12,WeatherDisplay:10.37,2013-02-12 01:45:00,
2013-02-11 20:55:00,61.7,58.4,29.93,NW,310,0.0,2.0,89,0.00,OVC,OVC,0.12,WeatherDisplay:10.37,2013-02-12 01:55:00,
2013-02-11 21:00:00,61.6,58.3,29.93,NW,310,0.0,2.0,89,0.00,SCT,OVC,0.12,WeatherDisplay:10.37,2013-02-12 02:00:00,
2013-02-11 21:05:00,61.5,58.3,29.92,NW,310,0.0,0.0,89,0.00,OVC,OVC,0.12,WeatherDisplay:10.37,2013-02-12 02:05:00,
2013-02-11 21:15:00,61.2,58.0,29.93,NW,310,1.0,5.0,89,0.00,OVC,OVC,0.12,WeatherDisplay:10.37,2013-02-12 02:15:00,
2013-02-11 21:25:00,61.0,57.7,29.94,NW,310,0.0,3.0,89,0.00,OVC,OVC,0.12,WeatherDisplay:10.37,2013-02-12 02:25:00,
2013-02-11 21:30:00,60.8,57.6,29.93,NW,310,0.0,2.0,89,0.00,OVC,OVC,0.12,WeatherDisplay:10.37,2013-02-12 02:30:00,
2013-02-11 21:40:00,60.6,57.7,29.93,NW,310,0.0,3.0,90,0.00,OVC,OVC,0.12,WeatherDisplay:10.37,2013-02-12 02:40:00,
2013-02-11 21:45:00,60.5,57.6,29.93,NW,310,1.0,2.0,90,0.00,OVC,OVC,0.12,WeatherDisplay:10.37,2013-02-12 02:45:00,
2013-02-11 21:55:00,60.3,57.4,29.93,NW,310,0.0,0.0,90,0.00,OVC,OVC,0.12,WeatherDisplay:10.37,2013-02-12 02:55:00,
2013-02-11 22:00:00,60.2,57.3,29.93,NW,310,0.0,0.0,90,0.00,BKN,OVC,0.12,WeatherDisplay:10.37,2013-02-12 03:00:00,
2013-02-11 22:10:00,59.9,57.0,29.93,NW,310,0.0,2.0,90,0.00,OVC,OVC,0.12,WeatherDisplay:10.37,2013-02-12 03:10:00,
2013-02-11 22:15:00,59.8,56.9,29.93,NW,310,0.0,2.0,90,0.00,OVC,OVC,0.12,WeatherDisplay:10.37,2013-02-12 03:15:00,
2013-02-11 22:25:00,59.5,56.6,29.93,NW,310,1.0,2.0,90,0.00,OVC,OVC,0.12,WeatherDisplay:10.37,2013-02-12 03:25:00,
2013-02-11 22:30:00,59.4,56.4,29.93,NW,310,0.0,5.0,90,0.00,OVC,OVC,0.12,WeatherDisplay:10.37,2013-02-12 03:30:00,
2013-02-11 22:40:00,59.1,56.5,29.93,NW,310,1.0,5.0,91,0.00,OVC,OVC,0.12,WeatherDisplay:10.37,2013-02-12 03:40:00,
2013-02-11 22:45:00,59.0,56.4,29.93,NW,311,5.0,5.0,91,0.00,OVC,OVC,0.12,WeatherDisplay:10.37,2013-02-12 03:45:00,
2013-02-11 22:55:00,58.7,55.8,29.92,NW,317,3.0,5.0,90,0.00,OVC,OVC,0.12,WeatherDisplay:10.37,2013-02-12 03:55:00,
2013-02-11 23:00:00,58.7,55.8,29.92,NW,315,5.0,5.0,90,0.00,CLR,OVC,0.12,WeatherDisplay:10.37,2013-02-12 04:00:00,
2013-02-11 23:10:00,58.6,55.4,29.92,NW,304,6.0,6.0,89,0.00,OVC,OVC,0.12,WeatherDisplay:10.37,2013-02-12 04:10:00,
2013-02-11 23:15:00,58.6,55.4,29.92,WNW,296,6.0,6.0,89,0.00,OVC,OVC,0.12,WeatherDisplay:10.37,2013-02-12 04:15:00,
2013-02-11 23:25:00,58.6,55.0,29.93,WNW,283,3.0,5.0,88,0.00,OVC,OVC,0.12,WeatherDisplay:10.37,2013-02-12 04:25:00,
2013-02-11 23:30:00,58.5,55.0,29.93,West,279,5.0,5.0,88,0.00,OVC,OVC,0.12,WeatherDisplay:10.37,2013-02-12 04:30:00,
2013-02-11 23:40:00,58.4,54.5,29.93,West,279,2.0,3.0,87,0.00,OVC,OVC,0.12,WeatherDisplay:10.37,2013-02-12 04:40:00,
2013-02-11 23:45:00,58.4,54.5,29.93,West,279,0.0,3.0,87,0.00,OVC,OVC,0.12,WeatherDisplay:10.37,2013-02-12 04:45:00,
2013-02-11 23:55:00,58.2,54.0,29.93,West,279,2.0,3.0,86,0.00,OVC,OVC,0.12,WeatherDisplay:10.37,2013-02-12 04:55:00,